Weather at Qualcomm Building T Helipad

Public forecast

Using degrees Fahrenheit for public forecast. Weather courtesy of forecast.io.

Closest aviation weather report (METAR) to Qualcomm Building T Helipad

Closest report is Miramar Marine Corps Air Station - Mitscher Field, 3.1 nm (5.8 km) ESE.

2024/07/14 15:19 (retrieved 32 minutes ago)

KNKX 141519Z 05004KT 6SM BR OVC010 21/17 A3008 RMK AO2 T02060167

Closest aviation forecast (TAF) to Qualcomm Building T Helipad

Closest forecast is San Diego International Airport, 9.7 nm (17.9 km) S.

2024/07/14 15:03 Ammendment (retrieved 48 minutes ago)

TAF AMD KSAN 141500Z 1415/1518 VRB03KT P6SM OVC012 FM141700 29006KT P6SM SCT012 FM142000 29010KT P6SM SCT150 FM150400 VRB04KT P6SM BKN012 FM151700 29007KT P6SM SCT012